createdAt,value
2023-02-11T06:45:13.657Z,-1.41
2023-02-11T06:50:15.627Z,-1.57
2023-02-11T06:55:17.334Z,-1.56
2023-02-11T07:00:19.248Z,-1.38
2023-02-11T07:05:21.747Z,-1.33
2023-02-11T07:10:23.462Z,-1.06
2023-02-11T07:15:25.366Z,-1.14
2023-02-11T07:20:27.139Z,-0.96
2023-02-11T07:25:28.797Z,-0.92
2023-02-11T07:30:30.699Z,-0.73
2023-02-11T07:35:32.403Z,-0.72
2023-02-11T07:40:34.115Z,-0.74
2023-02-11T07:45:39.097Z,-0.69
2023-02-11T07:50:40.748Z,-0.68
2023-02-11T07:55:45.437Z,-0.42
2023-02-11T08:00:47.142Z,-0.29
2023-02-11T08:05:48.934Z,-0.21
2023-02-11T08:10:51.284Z,-0.02
2023-02-11T08:15:53.211Z,-0.17
2023-02-11T08:20:54.892Z,-0.06
2023-02-11T08:25:56.543Z,0.12
2023-02-11T08:30:58.209Z,0.22
2023-02-11T08:36:00.168Z,0.59
2023-02-11T08:41:01.937Z,0.49
2023-02-11T08:46:04.007Z,0.61
2023-02-11T08:51:11.768Z,0.71
2023-02-11T08:56:16.710Z,0.84
2023-02-11T09:01:23.003Z,1.29
2023-02-11T09:06:26.365Z,1.23
2023-02-11T09:11:35.774Z,1.20
2023-02-11T09:16:39.856Z,1.12
2023-02-11T09:21:43.150Z,0.92
2023-02-11T09:26:44.929Z,1.20
2023-02-11T09:31:47.916Z,1.22
2023-02-11T09:36:49.743Z,1.34
2023-02-11T09:42:18.981Z,1.29
2023-02-11T09:47:34.580Z,1.32
2023-02-11T09:53:02.215Z,1.59
2023-02-11T09:58:11.085Z,1.63
2023-02-11T10:03:21.501Z,1.68
2023-02-11T10:08:48.596Z,1.58
2023-02-11T10:14:12.134Z,1.59
2023-02-11T10:19:29.242Z,1.78
2023-02-11T10:24:32.613Z,1.84
2023-02-11T10:29:48.390Z,2.02
2023-02-11T10:34:54.484Z,2.03
2023-02-11T10:39:57.659Z,2.26
2023-02-11T10:45:10.051Z,2.11
2023-02-11T10:50:22.202Z,2.13
2023-02-11T10:55:28.968Z,2.13
2023-02-11T11:00:41.339Z,2.27
2023-02-11T11:05:57.324Z,2.11
2023-02-11T11:11:13.392Z,2.11
2023-02-11T11:16:16.209Z,2.17
2023-02-11T11:21:31.727Z,2.29
2023-02-11T11:26:47.050Z,2.22
2023-02-11T11:32:04.679Z,2.25
2023-02-11T11:37:31.398Z,2.41
2023-02-11T11:42:37.104Z,2.44
2023-02-11T11:47:46.801Z,2.44
2023-02-11T11:53:01.512Z,2.60
2023-02-11T11:58:04.973Z,2.64
2023-02-11T12:03:25.536Z,2.53
2023-02-11T12:08:49.126Z,2.67
2023-02-11T12:14:12.563Z,2.99
2023-02-11T12:19:17.135Z,2.95
2023-02-11T12:24:42.093Z,3.08
2023-02-11T12:30:02.541Z,3.09
2023-02-11T12:35:07.485Z,3.25
2023-02-11T12:40:15.434Z,3.21
2023-02-11T12:45:32.672Z,3.52
2023-02-11T12:51:04.901Z,3.28
2023-02-11T12:56:24.142Z,3.20
2023-02-11T13:01:39.719Z,3.33
2023-02-11T13:06:54.627Z,3.48
2023-02-11T13:12:20.650Z,3.52
2023-02-11T13:17:30.872Z,3.61
2023-02-11T13:22:43.449Z,3.51
2023-02-11T13:27:58.746Z,3.51
2023-02-11T13:33:01.100Z,3.36
2023-02-11T13:38:21.948Z,3.23
2023-02-11T13:43:28.911Z,3.46
2023-02-11T13:48:49.491Z,3.35
2023-02-11T13:53:57.698Z,3.35
2023-02-11T13:59:02.342Z,3.42
2023-02-11T14:04:39.343Z,3.43
2023-02-11T14:09:41.408Z,3.38
2023-02-11T14:15:04.314Z,3.33
2023-02-11T14:20:44.164Z,3.51
2023-02-11T14:26:01.532Z,3.28
2023-02-11T14:31:25.444Z,3.28
2023-02-11T14:36:48.686Z,3.41
2023-02-11T14:41:53.453Z,3.42
2023-02-11T14:46:56.426Z,3.38
2023-02-11T14:52:20.391Z,3.37
2023-02-11T14:58:12.702Z,3.55
2023-02-11T15:03:37.786Z,3.65
2023-02-11T15:08:45.913Z,3.46
2023-02-11T15:13:49.948Z,3.49
2023-02-11T15:18:58.164Z,3.44
2023-02-11T15:24:01.575Z,3.45
2023-02-11T15:29:03.486Z,3.36
2023-02-11T15:34:09.355Z,3.47
2023-02-11T15:39:30.469Z,3.41
2023-02-11T15:44:33.315Z,3.24
2023-02-11T15:49:35.306Z,3.34
2023-02-11T15:54:37.779Z,3.29
2023-02-11T15:59:45.840Z,3.30
2023-02-11T16:05:28.148Z,3.16
2023-02-11T16:10:35.617Z,3.15
2023-02-11T16:15:46.713Z,3.10
2023-02-11T16:20:49.640Z,3.08
2023-02-11T16:26:01.510Z,2.97
2023-02-11T16:31:05.100Z,2.97
2023-02-11T16:36:13.762Z,2.87
2023-02-11T16:41:15.509Z,2.45
2023-02-11T16:46:17.392Z,2.59
2023-02-11T16:51:19.072Z,2.55
2023-02-11T16:56:20.684Z,2.52
2023-02-11T17:01:22.338Z,2.62
2023-02-11T17:06:24.200Z,2.66
2023-02-11T17:11:26.557Z,2.38
2023-02-11T17:16:29.938Z,2.35
2023-02-11T17:21:32.087Z,2.44
2023-02-11T17:26:36.130Z,2.43
2023-02-11T17:31:39.290Z,2.36
2023-02-11T17:36:41.501Z,2.42
2023-02-11T17:41:43.069Z,2.52
2023-02-11T17:46:44.809Z,2.61
2023-02-11T17:51:46.807Z,2.51
2023-02-11T17:56:50.768Z,2.60
2023-02-11T18:01:52.660Z,2.61
2023-02-11T18:06:54.341Z,2.60
2023-02-11T18:11:56.200Z,2.74
2023-02-11T18:16:58.229Z,2.76
2023-02-11T18:22:01.073Z,2.77
2023-02-11T18:27:02.892Z,2.35
2023-02-11T18:32:04.805Z,2.52
2023-02-11T18:37:06.599Z,2.31
2023-02-11T18:42:09.213Z,2.36
2023-02-11T18:47:10.828Z,2.42
2023-02-11T18:52:12.470Z,2.55
2023-02-11T18:57:14.055Z,2.24
2023-02-11T19:02:15.668Z,2.29
2023-02-11T19:07:18.315Z,2.31
2023-02-11T19:12:20.051Z,2.47
2023-02-11T19:17:22.018Z,2.19
2023-02-11T19:22:24.231Z,2.39
2023-02-11T19:27:26.045Z,2.36
2023-02-11T19:32:28.235Z,2.09
2023-02-11T19:37:30.210Z,2.34
2023-02-11T19:42:31.923Z,2.46
2023-02-11T19:47:34.500Z,2.39
2023-02-11T19:52:40.278Z,2.45
2023-02-11T19:57:43.361Z,2.73
2023-02-11T20:02:47.226Z,2.74
2023-02-11T20:07:48.968Z,2.72
2023-02-11T20:12:53.684Z,2.78
2023-02-11T20:17:55.453Z,2.63
2023-02-11T20:22:58.637Z,2.75
2023-02-11T20:28:00.324Z,2.74
2023-02-11T20:33:02.059Z,2.79
2023-02-11T20:38:03.759Z,2.67
2023-02-11T20:43:08.705Z,2.85
2023-02-11T20:48:11.396Z,2.94
2023-02-11T20:53:13.025Z,2.83
2023-02-11T20:58:14.630Z,2.86
2023-02-11T21:03:16.322Z,2.77
2023-02-11T21:08:17.998Z,2.69
2023-02-11T21:13:19.652Z,2.80
2023-02-11T21:18:22.964Z,2.82
2023-02-11T21:23:25.006Z,2.83
2023-02-11T21:28:26.740Z,2.80
2023-02-11T21:33:29.219Z,2.83
2023-02-11T21:38:31.072Z,2.95
2023-02-11T21:43:33.817Z,3.00
2023-02-11T21:48:35.839Z,2.96
2023-02-11T21:53:38.578Z,2.92
2023-02-11T21:58:40.348Z,3.01
